createdAt,value
2019-03-05T00:00:16.628Z,4.70
2019-03-05T00:02:45.905Z,4.80
2019-03-05T00:05:15.467Z,4.80
2019-03-05T00:07:44.703Z,4.70
2019-03-05T00:10:15.913Z,4.80
2019-03-05T00:12:45.261Z,4.80
2019-03-05T00:15:16.912Z,4.80
2019-03-05T00:17:46.229Z,4.80
2019-03-05T00:20:15.568Z,4.70
2019-03-05T00:22:44.852Z,4.70
2019-03-05T00:25:18.650Z,4.70
2019-03-05T00:27:58.052Z,4.70
2019-03-05T00:30:34.160Z,4.70
2019-03-05T00:33:11.112Z,4.70
2019-03-05T00:35:54.215Z,4.70
2019-03-05T00:38:46.151Z,4.70
2019-03-05T00:41:28.260Z,4.70
2019-03-05T00:44:41.786Z,4.70
2019-03-05T00:47:41.008Z,4.70
2019-03-05T00:50:44.725Z,4.80
2019-03-05T00:53:40.884Z,4.80
2019-03-05T00:56:44.864Z,4.80
2019-03-05T00:59:45.412Z,4.80
2019-03-05T01:02:52.988Z,4.80
2019-03-05T01:05:54.270Z,4.80
2019-03-05T01:08:24.047Z,5.00
2019-03-05T01:10:53.414Z,5.00
2019-03-05T01:13:22.673Z,5.00
2019-03-05T01:15:52.051Z,5.00
2019-03-05T01:18:21.421Z,5.10
2019-03-05T01:20:50.770Z,5.10
2019-03-05T01:23:20.502Z,5.00
2019-03-05T01:25:49.800Z,5.10
2019-03-05T01:28:19.061Z,5.10
2019-03-05T01:31:05.999Z,5.10
2019-03-05T01:33:42.120Z,5.10
2019-03-05T01:36:15.719Z,5.10
2019-03-05T01:38:54.822Z,5.10
2019-03-05T01:41:24.103Z,5.10
2019-03-05T01:43:53.459Z,5.10
2019-03-05T01:46:22.807Z,5.10
2019-03-05T01:48:52.052Z,5.10
2019-03-05T01:51:21.467Z,5.10
2019-03-05T01:53:50.739Z,5.10
2019-03-05T01:56:19.937Z,5.10
2019-03-05T01:58:49.327Z,5.10
2019-03-05T02:01:18.659Z,5.10
2019-03-05T02:03:48.003Z,5.10
2019-03-05T02:06:17.650Z,5.10
2019-03-05T02:08:48.048Z,5.10
2019-03-05T02:11:17.304Z,5.20
2019-03-05T02:13:46.601Z,5.20
2019-03-05T02:16:16.008Z,5.20
2019-03-05T02:18:45.306Z,5.20
2019-03-05T02:21:14.568Z,5.20
2019-03-05T02:24:16.562Z,5.20
2019-03-05T02:27:28.072Z,5.10
2019-03-05T02:30:12.172Z,5.10
2019-03-05T02:33:08.050Z,5.00
2019-03-05T02:36:17.888Z,5.10
2019-03-05T02:39:21.476Z,5.10
2019-03-05T02:42:06.028Z,5.10
2019-03-05T02:45:22.221Z,5.10
2019-03-05T02:48:10.203Z,5.10
2019-03-05T02:51:23.525Z,5.10
2019-03-05T02:54:34.187Z,5.10
2019-03-05T02:57:11.220Z,5.10
2019-03-05T02:59:40.587Z,5.10
2019-03-05T03:02:28.068Z,5.10
2019-03-05T03:05:05.088Z,5.10
2019-03-05T03:07:34.448Z,5.10
2019-03-05T03:10:23.678Z,5.10
2019-03-05T03:12:53.244Z,5.10
2019-03-05T03:15:22.606Z,5.10
2019-03-05T03:17:52.018Z,5.10
2019-03-05T03:20:22.368Z,5.10
2019-03-05T03:22:51.641Z,5.00
2019-03-05T03:25:22.389Z,5.00
2019-03-05T03:27:51.874Z,5.00
2019-03-05T03:30:30.405Z,5.10
2019-03-05T03:32:59.689Z,5.10
2019-03-05T03:35:29.048Z,5.10
2019-03-05T03:37:58.334Z,5.00
2019-03-05T03:40:27.670Z,5.10
2019-03-05T03:42:57.020Z,5.10
2019-03-05T03:45:27.641Z,5.00
2019-03-05T03:47:56.974Z,5.00
2019-03-05T03:50:26.319Z,5.00
2019-03-05T03:52:55.694Z,5.00
2019-03-05T03:55:25.066Z,4.90
2019-03-05T03:57:54.367Z,4.90
2019-03-05T04:00:26.590Z,5.00
2019-03-05T04:02:56.814Z,4.90
2019-03-05T04:05:26.125Z,4.90
2019-03-05T04:07:55.470Z,4.90
2019-03-05T04:10:24.822Z,4.90
2019-03-05T04:12:54.177Z,4.80
2019-03-05T04:15:23.516Z,4.80
2019-03-05T04:17:52.916Z,4.70
2019-03-05T04:20:26.929Z,4.70
2019-03-05T04:22:56.348Z,4.80
2019-03-05T04:25:25.665Z,4.80
2019-03-05T04:27:54.949Z,4.80
2019-03-05T04:30:24.280Z,4.80
2019-03-05T04:32:53.578Z,4.90
2019-03-05T04:35:22.902Z,4.90
2019-03-05T04:37:52.237Z,4.80
2019-03-05T04:40:21.600Z,4.80
2019-03-05T04:42:50.961Z,4.80
2019-03-05T04:45:40.882Z,4.80
2019-03-05T04:48:10.155Z,4.80
2019-03-05T04:50:43.921Z,4.80
2019-03-05T04:53:13.280Z,4.80
2019-03-05T04:55:42.576Z,4.80
2019-03-05T04:58:11.932Z,4.70
2019-03-05T05:00:41.202Z,4.80
2019-03-05T05:03:10.580Z,4.80
2019-03-05T05:05:39.903Z,4.80
2019-03-05T05:08:09.224Z,4.80
2019-03-05T05:10:38.492Z,4.80
2019-03-05T05:13:07.755Z,4.80
2019-03-05T05:15:37.091Z,4.80
2019-03-05T05:18:06.473Z,4.80
2019-03-05T05:20:35.734Z,4.80
2019-03-05T05:23:05.103Z,4.80
2019-03-05T05:25:34.498Z,4.80
2019-03-05T05:28:03.875Z,4.80
2019-03-05T05:30:37.627Z,4.80
2019-03-05T05:33:07.011Z,4.90
2019-03-05T05:35:36.363Z,4.90
2019-03-05T05:38:05.667Z,4.90
2019-03-05T05:40:39.644Z,4.90
2019-03-05T05:43:11.656Z,4.90
2019-03-05T05:45:46.317Z,4.90
2019-03-05T05:48:15.907Z,4.90
2019-03-05T05:50:45.247Z,4.90
2019-03-05T05:53:14.589Z,4.80
2019-03-05T05:55:43.924Z,4.80
2019-03-05T05:58:13.300Z,4.80
2019-03-05T06:00:48.160Z,4.70
2019-03-05T06:03:17.453Z,4.70
2019-03-05T06:05:46.771Z,4.70
2019-03-05T06:08:16.257Z,4.70
2019-03-05T06:10:45.637Z,4.70
2019-03-05T06:13:14.997Z,4.70
2019-03-05T06:15:44.339Z,4.70
2019-03-05T06:18:13.868Z,4.70
2019-03-05T06:20:43.145Z,4.70
2019-03-05T06:23:12.553Z,4.70
2019-03-05T06:25:41.912Z,4.70
2019-03-05T06:28:11.228Z,4.80
2019-03-05T06:30:40.645Z,4.80
2019-03-05T06:33:10.059Z,4.80
2019-03-05T06:35:39.437Z,4.80
2019-03-05T06:38:08.738Z,4.80
2019-03-05T06:40:38.072Z,4.80
2019-03-05T06:43:07.463Z,4.80
2019-03-05T06:45:36.732Z,4.70
2019-03-05T06:48:06.014Z,4.70
2019-03-05T06:50:35.275Z,4.70
2019-03-05T06:53:04.573Z,4.70
2019-03-05T06:55:33.817Z,4.60
2019-03-05T06:58:03.190Z,4.60
2019-03-05T07:00:34.999Z,4.60
2019-03-05T07:03:04.504Z,4.60
2019-03-05T07:06:09.487Z,4.60
2019-03-05T07:08:41.548Z,4.60
2019-03-05T07:11:31.203Z,4.60
2019-03-05T07:14:02.069Z,4.70
2019-03-05T07:17:01.639Z,4.70
2019-03-05T07:19:57.970Z,4.70
2019-03-05T07:22:32.118Z,4.80
2019-03-05T07:25:01.478Z,4.80
2019-03-05T07:27:39.655Z,4.80
2019-03-05T07:30:16.002Z,4.80
2019-03-05T07:32:45.424Z,4.80
2019-03-05T07:35:17.788Z,4.90
2019-03-05T07:37:47.146Z,4.90
2019-03-05T07:40:16.467Z,5.00
2019-03-05T07:42:45.818Z,5.00
2019-03-05T07:45:15.164Z,5.00
2019-03-05T07:47:44.566Z,5.00
2019-03-05T07:50:14.422Z,5.00
2019-03-05T07:52:43.817Z,5.00
2019-03-05T07:55:15.423Z,5.10
2019-03-05T07:57:44.778Z,5.10
2019-03-05T08:00:16.312Z,5.20
2019-03-05T08:02:45.677Z,5.30
2019-03-05T08:05:15.635Z,5.30
2019-03-05T08:07:45.098Z,5.40
2019-03-05T08:10:26.741Z,5.40
2019-03-05T08:13:25.708Z,5.40
2019-03-05T08:16:18.952Z,5.40
2019-03-05T08:18:49.441Z,5.40
2019-03-05T08:21:18.799Z,5.40
2019-03-05T08:23:48.550Z,5.40
2019-03-05T08:26:17.988Z,5.30
2019-03-05T08:28:47.232Z,5.30
2019-03-05T08:31:16.479Z,5.30
2019-03-05T08:33:45.716Z,5.10
2019-03-05T08:36:14.990Z,5.00
2019-03-05T08:38:44.299Z,4.90
2019-03-05T08:41:13.659Z,4.90
2019-03-05T08:43:42.899Z,4.90
2019-03-05T08:46:12.163Z,4.90
2019-03-05T08:48:41.387Z,4.90
2019-03-05T08:51:10.636Z,4.90
2019-03-05T08:53:49.283Z,4.90
2019-03-05T08:56:11.193Z,4.90
2019-03-05T08:58:40.418Z,5.00
2019-03-05T09:01:09.677Z,5.00
2019-03-05T09:03:38.907Z,5.00
2019-03-05T09:06:08.182Z,5.00
2019-03-05T09:08:38.477Z,5.10
2019-03-05T09:11:07.972Z,5.10
2019-03-05T09:13:37.524Z,5.10
2019-03-05T09:16:06.953Z,5.10
2019-03-05T09:18:36.119Z,5.10
2019-03-05T09:21:05.543Z,5.10
2019-03-05T09:23:34.783Z,5.10
2019-03-05T09:26:03.972Z,5.10
2019-03-05T09:28:33.203Z,5.10
2019-03-05T09:31:02.549Z,5.00
2019-03-05T09:33:31.872Z,5.10
2019-03-05T09:36:01.127Z,5.10
2019-03-05T09:38:30.431Z,5.10
2019-03-05T09:40:59.699Z,5.10
2019-03-05T09:43:29.012Z,5.20
2019-03-05T09:45:58.345Z,5.20
2019-03-05T09:48:27.580Z,5.20
2019-03-05T09:50:56.932Z,5.30
2019-03-05T09:53:26.167Z,5.30
2019-03-05T09:55:55.520Z,5.30
2019-03-05T09:58:24.708Z,5.40
2019-03-05T10:00:53.928Z,5.40
2019-03-05T10:03:23.145Z,5.40
2019-03-05T10:05:52.398Z,5.30
2019-03-05T10:08:31.939Z,5.30
2019-03-05T10:10:52.687Z,5.30
2019-03-05T10:13:22.019Z,5.30
2019-03-05T10:15:53.395Z,5.30
2019-03-05T10:18:22.319Z,5.20
2019-03-05T10:20:51.616Z,5.20
2019-03-05T10:23:20.883Z,5.10
2019-03-05T10:25:50.458Z,5.00
2019-03-05T10:28:20.188Z,4.90
2019-03-05T10:30:49.442Z,4.90
2019-03-05T10:33:19.435Z,4.90
2019-03-05T10:35:48.911Z,4.80
2019-03-05T10:38:18.448Z,4.80
2019-03-05T10:40:47.983Z,4.70
2019-03-05T10:43:17.568Z,4.70
2019-03-05T10:45:47.386Z,4.70
2019-03-05T10:48:17.910Z,4.70
2019-03-05T10:50:48.023Z,4.60
2019-03-05T10:53:17.515Z,4.60
2019-03-05T10:55:47.037Z,4.50
2019-03-05T10:58:17.358Z,4.50
2019-03-05T11:00:47.385Z,4.40
2019-03-05T11:03:17.583Z,4.40
2019-03-05T11:05:47.427Z,4.40
2019-03-05T11:08:19.981Z,4.40
2019-03-05T11:10:49.401Z,4.40
2019-03-05T11:13:18.656Z,4.50
2019-03-05T11:15:49.792Z,4.50
2019-03-05T11:18:28.917Z,4.60
2019-03-05T11:20:50.061Z,4.70
2019-03-05T11:23:19.424Z,4.60
2019-03-05T11:25:48.832Z,4.60
2019-03-05T11:28:18.028Z,4.70
2019-03-05T11:30:47.273Z,4.70
2019-03-05T11:33:16.533Z,4.80
2019-03-05T11:35:45.792Z,4.80
2019-03-05T11:38:15.332Z,4.80
2019-03-05T11:40:44.688Z,4.90
2019-03-05T11:43:16.406Z,4.90
2019-03-05T11:45:45.876Z,4.90
2019-03-05T11:48:15.758Z,5.00
2019-03-05T11:50:45.375Z,5.00
2019-03-05T11:53:14.857Z,4.90
2019-03-05T11:55:44.518Z,5.00
2019-03-05T11:58:13.855Z,4.90
2019-03-05T12:01:04.426Z,5.00
2019-03-05T12:03:33.764Z,5.00
2019-03-05T12:06:03.007Z,5.10
2019-03-05T12:08:32.395Z,5.10
2019-03-05T12:11:01.643Z,5.10
2019-03-05T12:13:30.907Z,5.20
2019-03-05T12:16:02.980Z,5.30
2019-03-05T12:18:32.324Z,5.30
2019-03-05T12:21:01.671Z,5.30
2019-03-05T12:23:31.020Z,5.40
2019-03-05T12:26:00.392Z,5.50
2019-03-05T12:28:29.658Z,5.50
2019-03-05T12:30:59.000Z,5.50
2019-03-05T12:33:28.580Z,5.50
2019-03-05T12:35:57.768Z,5.40
2019-03-05T12:38:27.009Z,5.40
2019-03-05T12:40:57.935Z,5.40
2019-03-05T12:43:27.252Z,5.50
2019-03-05T12:45:56.542Z,5.50
2019-03-05T12:48:25.856Z,5.50
2019-03-05T12:50:55.121Z,5.50
2019-03-05T12:53:24.500Z,5.50
2019-03-05T12:55:53.798Z,5.50
2019-03-05T12:58:23.133Z,5.50
2019-03-05T13:00:52.472Z,5.50
2019-03-05T13:03:24.368Z,5.50
2019-03-05T13:05:53.701Z,5.40
2019-03-05T13:08:22.936Z,5.40
2019-03-05T13:10:52.196Z,5.40
2019-03-05T13:13:21.535Z,5.40
2019-03-05T13:15:52.953Z,5.40
2019-03-05T13:18:21.809Z,5.40
2019-03-05T13:20:51.143Z,5.50
2019-03-05T13:23:20.382Z,5.50
2019-03-05T13:25:49.665Z,5.60
2019-03-05T13:28:18.891Z,5.70
2019-03-05T13:30:48.281Z,5.80
2019-03-05T13:33:17.536Z,5.90
2019-03-05T13:35:46.799Z,6.00
2019-03-05T13:38:16.040Z,6.20
2019-03-05T13:40:45.303Z,6.30
2019-03-05T13:43:14.534Z,6.40
2019-03-05T13:45:49.232Z,6.50
2019-03-05T13:49:01.696Z,6.70
2019-03-05T13:52:15.678Z,6.90
2019-03-05T13:54:58.739Z,7.20
2019-03-05T13:58:06.735Z,7.30
2019-03-05T14:00:36.021Z,7.30
2019-03-05T14:03:12.698Z,7.20
2019-03-05T14:06:37.745Z,7.20
2019-03-05T14:09:23.322Z,7.00
2019-03-05T14:11:53.549Z,7.10
2019-03-05T14:14:27.421Z,7.20
2019-03-05T14:17:01.943Z,7.20
2019-03-05T14:19:31.394Z,7.60
2019-03-05T14:22:00.798Z,8.00
2019-03-05T14:24:30.219Z,8.20
2019-03-05T14:26:59.567Z,8.10
2019-03-05T14:29:29.432Z,8.10
2019-03-05T14:31:58.933Z,8.00
2019-03-05T14:34:28.234Z,8.20
2019-03-05T14:36:57.576Z,8.40
2019-03-05T14:39:30.794Z,8.70
2019-03-05T14:42:00.395Z,8.80
2019-03-05T14:44:39.351Z,8.80
2019-03-05T14:47:02.218Z,8.80
2019-03-05T14:49:31.568Z,8.60
2019-03-05T14:52:00.925Z,8.70
2019-03-05T14:54:30.256Z,8.70
2019-03-05T14:56:59.606Z,8.70
2019-03-05T14:59:29.234Z,8.70
2019-03-05T15:01:58.629Z,8.70
2019-03-05T15:04:27.996Z,8.90
2019-03-05T15:06:57.333Z,9.10
2019-03-05T15:09:26.773Z,9.20
2019-03-05T15:11:56.114Z,9.70
2019-03-05T15:14:25.391Z,9.70
2019-03-05T15:16:54.726Z,9.60
2019-03-05T15:19:24.044Z,9.40
2019-03-05T15:21:53.289Z,9.50
2019-03-05T15:24:22.577Z,9.70
2019-03-05T15:26:51.894Z,9.90
2019-03-05T15:29:21.179Z,9.90
2019-03-05T15:31:50.470Z,9.70
2019-03-05T15:34:19.899Z,10.00
2019-03-05T15:36:51.942Z,10.40
2019-03-05T15:39:20.244Z,10.60
2019-03-05T15:41:49.597Z,10.80
2019-03-05T15:44:18.927Z,11.00
2019-03-05T15:46:48.304Z,10.60
2019-03-05T15:49:17.713Z,9.90
2019-03-05T15:51:46.979Z,9.50
2019-03-05T15:54:16.330Z,9.70
2019-03-05T15:56:45.675Z,9.60
2019-03-05T15:59:14.959Z,9.70
2019-03-05T16:01:44.315Z,9.90
2019-03-05T16:04:13.624Z,9.80
2019-03-05T16:06:42.897Z,9.90
2019-03-05T16:09:18.693Z,10.20
2019-03-05T16:11:47.943Z,9.90
2019-03-05T16:14:17.264Z,9.70
2019-03-05T16:16:46.462Z,9.80
2019-03-05T16:19:16.514Z,9.70
2019-03-05T16:21:46.744Z,9.70
2019-03-05T16:24:16.032Z,9.60
2019-03-05T16:26:45.348Z,9.40
2019-03-05T16:29:16.359Z,8.90
2019-03-05T16:31:52.131Z,8.30
2019-03-05T16:34:47.065Z,7.90
2019-03-05T16:37:28.448Z,7.60
2019-03-05T16:40:28.753Z,7.30
2019-03-05T16:43:11.596Z,7.20
2019-03-05T16:45:57.670Z,7.10
2019-03-05T16:48:45.965Z,7.00
2019-03-05T16:51:29.540Z,6.90
2019-03-05T16:54:23.963Z,6.80
2019-03-05T16:57:01.943Z,6.70
2019-03-05T16:59:40.989Z,6.60
2019-03-05T17:02:41.372Z,6.60
2019-03-05T17:05:34.537Z,6.50
2019-03-05T17:08:35.104Z,6.40
2019-03-05T17:11:15.047Z,6.30
2019-03-05T17:13:44.372Z,6.30
2019-03-05T17:16:13.647Z,6.20
2019-03-05T17:18:42.952Z,6.20
2019-03-05T17:21:12.321Z,6.10
2019-03-05T17:23:41.625Z,6.10
2019-03-05T17:26:10.992Z,6.10
2019-03-05T17:28:40.304Z,6.10
2019-03-05T17:31:09.656Z,6.10
2019-03-05T17:33:38.983Z,6.10
2019-03-05T17:36:08.363Z,6.10
2019-03-05T17:38:37.717Z,6.10
2019-03-05T17:41:07.456Z,6.00
2019-03-05T17:43:36.798Z,6.00
2019-03-05T17:46:06.181Z,6.00
2019-03-05T17:48:35.524Z,5.90
2019-03-05T17:51:05.284Z,5.90
2019-03-05T17:53:34.626Z,5.90
2019-03-05T17:56:04.112Z,5.90
2019-03-05T17:58:33.641Z,5.80
2019-03-05T18:01:03.021Z,5.90
2019-03-05T18:03:32.525Z,5.80
2019-03-05T18:06:01.896Z,5.80
2019-03-05T18:08:31.169Z,5.70
2019-03-05T18:11:00.641Z,5.70
2019-03-05T18:13:29.976Z,5.70
2019-03-05T18:15:59.840Z,5.70
2019-03-05T18:18:29.168Z,5.60
2019-03-05T18:20:58.526Z,5.60
2019-03-05T18:23:27.865Z,5.60
2019-03-05T18:25:57.219Z,5.60
2019-03-05T18:28:26.972Z,5.60
2019-03-05T18:30:56.435Z,5.60
2019-03-05T18:33:25.792Z,5.50
2019-03-05T18:35:55.159Z,5.50
2019-03-05T18:38:24.425Z,5.50
2019-03-05T18:40:53.799Z,5.50
2019-03-05T18:43:23.141Z,5.50
2019-03-05T18:45:52.488Z,5.50
2019-03-05T18:48:21.860Z,5.50
2019-03-05T18:50:52.915Z,5.50
2019-03-05T18:53:22.372Z,5.50
2019-03-05T18:55:51.873Z,5.50
2019-03-05T18:58:21.253Z,5.40
2019-03-05T19:00:50.582Z,5.40
2019-03-05T19:03:19.977Z,5.30
2019-03-05T19:05:49.403Z,5.30
2019-03-05T19:08:18.784Z,5.30
2019-03-05T19:10:48.263Z,5.20
2019-03-05T19:13:17.752Z,5.20
2019-03-05T19:15:47.378Z,5.20
2019-03-05T19:18:16.703Z,5.10
2019-03-05T19:20:46.039Z,5.10
2019-03-05T19:23:15.378Z,5.10
2019-03-05T19:25:44.718Z,5.00
2019-03-05T19:28:14.537Z,5.00
2019-03-05T19:30:47.158Z,4.90
2019-03-05T19:33:16.494Z,4.90
2019-03-05T19:35:45.840Z,4.80
2019-03-05T19:38:15.275Z,4.80
2019-03-05T19:40:44.569Z,4.80
2019-03-05T19:43:13.993Z,4.80
2019-03-05T19:45:43.325Z,4.80
2019-03-05T19:48:12.636Z,4.70
2019-03-05T19:50:42.245Z,4.70
2019-03-05T19:53:11.707Z,4.70
2019-03-05T19:55:40.953Z,4.70
2019-03-05T19:58:13.162Z,4.60
2019-03-05T20:00:58.740Z,4.50
2019-03-05T20:03:28.076Z,4.50
2019-03-05T20:05:57.304Z,4.50
2019-03-05T20:08:26.576Z,4.40
2019-03-05T20:10:55.883Z,4.30
2019-03-05T20:13:25.220Z,4.30
2019-03-05T20:15:54.454Z,4.30
2019-03-05T20:18:23.703Z,4.30
2019-03-05T20:20:53.667Z,4.20
2019-03-05T20:23:23.323Z,4.20
2019-03-05T20:25:53.026Z,4.20
2019-03-05T20:28:22.409Z,4.20
2019-03-05T20:30:51.863Z,4.10
2019-03-05T20:33:24.162Z,4.10
2019-03-05T20:35:53.695Z,4.10
2019-03-05T20:38:23.192Z,4.20
2019-03-05T20:40:56.574Z,4.10
2019-03-05T20:43:26.066Z,4.10
2019-03-05T20:45:59.017Z,4.10
2019-03-05T20:48:28.782Z,4.10
2019-03-05T20:50:58.225Z,4.00
2019-03-05T20:53:27.601Z,4.10
2019-03-05T20:55:57.023Z,4.10
2019-03-05T20:58:26.786Z,4.00
2019-03-05T21:00:56.612Z,4.00
2019-03-05T21:03:26.360Z,4.00
2019-03-05T21:05:55.829Z,3.90
2019-03-05T21:08:25.272Z,3.90
2019-03-05T21:10:55.142Z,4.00
2019-03-05T21:13:24.837Z,4.00
2019-03-05T21:15:54.125Z,4.00
2019-03-05T21:18:23.485Z,4.00
2019-03-05T21:20:56.084Z,3.90
2019-03-05T21:23:25.440Z,3.90
2019-03-05T21:25:54.795Z,4.00
2019-03-05T21:28:24.055Z,4.00
2019-03-05T21:30:53.416Z,4.00
2019-03-05T21:33:23.109Z,4.10
2019-03-05T21:35:52.448Z,4.00
2019-03-05T21:38:21.978Z,4.10
2019-03-05T21:40:51.698Z,4.10
2019-03-05T21:43:21.059Z,4.10
2019-03-05T21:45:50.816Z,4.10
2019-03-05T21:48:20.119Z,4.10
2019-03-05T21:50:49.396Z,4.20
2019-03-05T21:53:18.787Z,4.20
2019-03-05T21:55:49.614Z,4.20
2019-03-05T21:58:19.477Z,4.20
2019-03-05T22:00:49.008Z,4.20
2019-03-05T22:03:18.343Z,4.20
2019-03-05T22:05:48.628Z,4.30
2019-03-05T22:08:18.249Z,4.30
2019-03-05T22:10:47.900Z,4.40
2019-03-05T22:13:17.259Z,4.40
2019-03-05T22:15:46.720Z,4.40
2019-03-05T22:18:16.361Z,4.50
2019-03-05T22:20:45.818Z,4.50
2019-03-05T22:23:15.124Z,4.50
2019-03-05T22:25:44.542Z,4.60
2019-03-05T22:28:13.858Z,4.60
2019-03-05T22:30:43.367Z,4.60
2019-03-05T22:33:12.932Z,4.70
2019-03-05T22:35:42.532Z,4.60
2019-03-05T22:38:12.020Z,4.60
2019-03-05T22:40:41.351Z,4.60
2019-03-05T22:43:14.070Z,4.60
2019-03-05T22:45:44.928Z,4.60
2019-03-05T22:48:14.656Z,4.60
2019-03-05T22:50:44.102Z,4.60
2019-03-05T22:53:13.709Z,4.60
2019-03-05T22:55:43.151Z,4.60
2019-03-05T22:58:13.551Z,4.60
2019-03-05T23:01:10.106Z,4.60
2019-03-05T23:03:46.826Z,4.60
2019-03-05T23:06:16.329Z,4.60
2019-03-05T23:08:45.726Z,4.70
2019-03-05T23:11:15.302Z,4.80
2019-03-05T23:13:45.104Z,4.80
2019-03-05T23:16:14.849Z,4.90
2019-03-05T23:18:44.476Z,5.00
2019-03-05T23:21:14.254Z,4.90
2019-03-05T23:23:43.802Z,4.90
2019-03-05T23:26:14.620Z,4.90
2019-03-05T23:28:44.234Z,4.90
2019-03-05T23:31:14.009Z,4.90
2019-03-05T23:33:43.468Z,4.90
2019-03-05T23:36:13.247Z,4.90
2019-03-05T23:38:42.662Z,4.80
2019-03-05T23:41:11.903Z,4.80
2019-03-05T23:43:41.248Z,4.80
2019-03-05T23:46:10.855Z,4.80
2019-03-05T23:48:40.348Z,4.80
2019-03-05T23:51:10.016Z,4.70
2019-03-05T23:53:39.507Z,4.80
2019-03-05T23:56:08.860Z,4.80
2019-03-05T23:58:38.195Z,4.90
